Time;durP1;ratioP1;P1;durP2;ratioP2;P2;SDS_P1;SDS_P2;PMS_P1;PMS_P2;Temp;Humidity;BMP_temperature;BMP_pressure;BME280_temperature;BME280_humidity;BME280_pressure;Samples;Min_cycle;Max_cycle;Signal;HPM_P1;HPM_P2
2023/04/21 00:01:58;;;;;;;5.60;3.00;;;;;;;14.85;66.12;100638.69;106904;1269;25510;-56
2023/04/21 00:04:27;;;;;;;2.90;2.60;;;;;;;14.85;66.23;100635.54;106833;1269;22516;-56
2023/04/21 00:06:56;;;;;;;3.20;2.70;;;;;;;14.84;66.19;100634.34;106851;1273;24374;-56
2023/04/21 00:09:24;;;;;;;4.70;3.80;;;;;;;14.84;66.16;100634.71;106882;1269;22646;-56
2023/04/21 00:11:53;;;;;;;7.90;2.90;;;;;;;14.84;66.13;100632.80;107056;1269;25331;-56
2023/04/21 00:14:21;;;;;;;3.60;3.00;;;;;;;14.84;66.17;100628.95;106900;1269;25368;-56
2023/04/21 00:16:51;;;;;;;3.60;2.90;;;;;;;14.84;66.17;100629.27;106912;1269;25352;-56
2023/04/21 00:19:20;;;;;;;4.60;3.40;;;;;;;14.81;66.24;100631.52;106511;1277;24285;-56
2023/04/21 00:21:48;;;;;;;2.90;2.60;;;;;;;14.81;66.21;100629.55;106819;1270;23408;-56
2023/04/21 00:24:17;;;;;;;2.70;2.50;;;;;;;14.85;66.03;100623.48;106736;1269;26639;-56
2023/04/21 00:26:45;;;;;;;4.10;3.30;;;;;;;14.86;66.02;100625.71;106883;1268;25356;-56
2023/04/21 00:29:14;;;;;;;4.70;3.20;;;;;;;14.86;65.88;100620.65;106868;1273;25393;-56
2023/04/21 00:31:42;;;;;;;3.90;3.30;;;;;;;14.85;65.90;100617.02;106020;1269;1003057;-56
2023/04/21 00:34:10;;;;;;;3.30;3.00;;;;;;;14.84;65.87;100612.19;106796;1269;25370;-56
2023/04/21 00:36:39;;;;;;;3.70;3.00;;;;;;;14.84;65.84;100612.20;106928;1273;24220;-56
2023/04/21 00:39:08;;;;;;;4.30;3.40;;;;;;;14.84;65.89;100610.77;106854;1273;25412;-55
2023/04/21 00:41:38;;;;;;;3.60;3.30;;;;;;;14.84;65.88;100609.73;106937;1270;24314;-56
2023/04/21 00:44:08;;;;;;;3.30;3.00;;;;;;;14.84;65.96;100607.46;106865;1270;22644;-56
2023/04/21 00:46:37;;;;;;;4.70;3.60;;;;;;;14.84;65.85;100600.80;106804;1271;25416;-56
2023/04/21 00:49:06;;;;;;;4.10;2.80;;;;;;;14.83;65.87;100598.58;106940;1273;25397;-56
2023/04/21 00:51:35;;;;;;;4.20;3.20;;;;;;;14.82;65.77;100595.13;106802;1276;22546;-56
2023/04/21 00:54:05;;;;;;;3.10;2.30;;;;;;;14.81;65.75;100593.77;106945;1273;25341;-56
2023/04/21 00:56:34;;;;;;;3.60;2.40;;;;;;;14.81;65.64;100592.21;106891;1272;25352;-56
2023/04/21 00:59:03;;;;;;;3.40;2.30;;;;;;;14.80;65.68;100588.38;106841;1269;25394;-56
2023/04/21 01:01:33;;;;;;;2.60;1.80;;;;;;;14.80;65.71;100583.52;106840;1273;25329;-56
2023/04/21 01:04:02;;;;;;;2.50;2.00;;;;;;;14.79;65.65;100581.80;106875;1270;25339;-56
2023/04/21 01:06:31;;;;;;;2.50;2.00;;;;;;;14.79;65.66;100578.16;106863;1269;22647;-55
2023/04/21 01:09:00;;;;;;;1.90;1.80;;;;;;;14.79;65.68;100578.16;106644;1272;25361;-56
2023/04/21 01:11:30;;;;;;;2.10;1.90;;;;;;;14.78;65.70;100575.73;106895;1273;24232;-56
2023/04/21 01:14:00;;;;;;;2.20;2.00;;;;;;;14.78;65.69;100578.38;106842;1269;24304;-56
2023/04/21 01:16:28;;;;;;;3.00;2.00;;;;;;;14.76;65.72;100573.71;106719;1273;25361;-55
2023/04/21 01:18:58;;;;;;;2.90;1.90;;;;;;;14.77;65.75;100575.09;106881;1269;25425;-56
2023/04/21 01:21:27;;;;;;;3.60;2.30;;;;;;;14.78;65.78;100568.77;106756;1272;22519;-56
2023/04/21 01:23:56;;;;;;;2.10;1.80;;;;;;;14.78;65.75;100572.08;106804;1270;25353;-56
2023/04/21 01:26:24;;;;;;;2.70;1.60;;;;;;;14.78;65.67;100569.10;106105;1276;1002839;-56
2023/04/21 01:28:55;;;;;;;3.60;2.10;;;;;;;14.78;65.56;100569.48;106858;1272;22518;-56
2023/04/21 01:31:26;;;;;;;2.50;2.00;;;;;;;14.75;65.47;100569.21;106817;1272;25459;-56
2023/04/21 01:33:54;;;;;;;2.50;1.90;;;;;;;14.73;65.61;100566.71;106873;1274;25287;-56
2023/04/21 01:36:23;;;;;;;2.80;2.00;;;;;;;14.72;65.68;100565.33;106804;1271;22645;-56
2023/04/21 01:38:53;;;;;;;2.70;1.80;;;;;;;14.73;65.68;100567.92;106847;1269;22552;-55
2023/04/21 01:41:22;;;;;;;1.80;1.70;;;;;;;14.71;65.45;100566.08;106872;1270;24364;-56
2023/04/21 01:43:50;;;;;;;2.90;2.20;;;;;;;14.66;65.52;100560.33;106873;1270;25463;-55
2023/04/21 01:46:19;;;;;;;2.70;2.50;;;;;;;14.58;65.60;100564.67;106907;1269;23859;-56
2023/04/21 01:48:48;;;;;;;2.80;2.10;;;;;;;14.55;65.81;100558.72;106828;1269;22639;-56
2023/04/21 01:51:16;;;;;;;4.40;1.70;;;;;;;14.55;65.89;100558.18;106837;1268;24415;-56
2023/04/21 01:53:45;;;;;;;2.40;2.10;;;;;;;14.54;65.93;100555.41;106800;1270;25353;-56
2023/04/21 01:56:14;;;;;;;2.20;1.80;;;;;;;14.54;65.98;100551.07;106877;1269;25335;-56
2023/04/21 01:58:42;;;;;;;2.40;2.00;;;;;;;14.54;66.10;100547.38;106896;1266;24217;-56
2023/04/21 02:01:10;;;;;;;2.00;1.80;;;;;;;14.57;66.23;100546.59;106754;1273;22542;-56
2023/04/21 02:03:39;;;;;;;2.20;2.00;;;;;;;14.59;66.32;100545.27;106802;1273;25350;-56
2023/04/21 02:06:08;;;;;;;2.20;1.60;;;;;;;14.61;66.27;100546.08;106894;1269;22561;-56
2023/04/21 02:08:37;;;;;;;2.50;1.80;;;;;;;14.63;66.29;100544.07;106897;1268;25299;-56
2023/04/21 02:11:05;;;;;;;2.70;1.80;;;;;;;14.65;66.36;100551.30;106757;1271;22535;-56
2023/04/21 02:13:33;;;;;;;3.00;2.10;;;;;;;14.66;66.37;100550.04;106784;1268;25447;-56
2023/04/21 02:16:02;;;;;;;2.00;1.80;;;;;;;14.67;66.33;100551.73;106740;1257;25439;-55
2023/04/21 02:18:43;;;;;;;2.50;1.80;;;;;;;14.68;66.30;100553.97;106865;1273;26629;-56
2023/04/21 02:21:11;;;;;;;2.30;2.10;;;;;;;14.68;66.29;100554.14;106832;1270;25242;-55
2023/04/21 02:23:40;;;;;;;2.10;1.80;;;;;;;14.68;66.49;100556.58;106872;1268;25335;-56
2023/04/21 02:26:09;;;;;;;2.20;1.60;;;;;;;14.68;66.50;100553.80;106963;1269;22523;-56
2023/04/21 02:28:37;;;;;;;3.30;2.00;;;;;;;14.68;66.52;100558.68;106825;1270;25575;-57
2023/04/21 02:31:06;;;;;;;1.50;1.30;;;;;;;14.67;66.64;100555.73;106797;1273;25404;-55
2023/04/21 02:33:34;;;;;;;1.50;0.90;;;;;;;14.67;66.71;100555.05;106840;1269;25529;-56
2023/04/21 02:36:03;;;;;;;2.20;1.40;;;;;;;14.68;66.70;100551.34;106909;1270;22527;-55
2023/04/21 02:38:32;;;;;;;1.10;1.00;;;;;;;14.68;66.73;100554.13;106755;1270;25404;-55
2023/04/21 02:41:00;;;;;;;1.60;0.90;;;;;;;14.69;66.74;100551.99;106964;1270;25321;-55
2023/04/21 02:43:29;;;;;;;1.10;0.80;;;;;;;14.68;66.72;100550.98;106846;1270;25526;-55
2023/04/21 02:45:57;;;;;;;1.70;1.00;;;;;;;14.68;66.93;100553.42;106895;1270;25398;-55
2023/04/21 02:48:25;;;;;;;2.10;1.00;;;;;;;14.69;67.01;100550.44;106911;1268;23899;-55
2023/04/21 02:50:54;;;;;;;1.00;0.90;;;;;;;14.69;66.96;100550.77;106800;1269;25361;-55
2023/04/21 02:53:23;;;;;;;1.00;0.90;;;;;;;14.70;67.01;100549.70;106763;1274;22579;-55
2023/04/21 02:55:51;;;;;;;2.60;1.20;;;;;;;14.71;67.01;100547.77;106859;1270;26520;-55
2023/04/21 02:58:21;;;;;;;2.70;2.00;;;;;;;14.71;67.09;100547.95;106830;1268;25425;-56
2023/04/21 03:00:50;;;;;;;2.40;1.50;;;;;;;14.72;67.05;100546.68;106803;1273;22770;-56
2023/04/21 03:03:19;;;;;;;1.70;1.50;;;;;;;14.66;66.86;100542.88;106829;1269;22508;-56
2023/04/21 03:05:48;;;;;;;1.50;1.40;;;;;;;14.55;66.97;100545.06;106540;1272;25404;-56
2023/04/21 03:08:17;;;;;;;1.90;1.20;;;;;;;14.44;67.26;100546.26;106629;1273;22528;-56
2023/04/21 03:10:46;;;;;;;1.70;1.60;;;;;;;14.34;67.52;100550.31;106659;1273;25338;-55
2023/04/21 03:13:15;;;;;;;1.40;1.20;;;;;;;14.25;67.84;100551.17;106651;1273;22736;-55
2023/04/21 03:15:44;;;;;;;1.70;1.30;;;;;;;14.18;68.14;100550.45;106699;1273;24448;-55
2023/04/21 03:18:12;;;;;;;1.80;1.60;;;;;;;14.13;68.37;100552.70;106698;1274;25352;-56
2023/04/21 03:20:41;;;;;;;2.90;1.40;;;;;;;14.10;68.53;100553.73;106412;1279;24255;-56
2023/04/21 03:23:10;;;;;;;2.40;1.70;;;;;;;14.07;68.78;100554.70;106716;1276;25350;-56
2023/04/21 03:25:38;;;;;;;2.10;1.60;;;;;;;14.03;68.99;100558.52;105727;1276;1003081;-56
2023/04/21 03:28:07;;;;;;;2.10;1.40;;;;;;;14.00;69.12;100558.63;106543;1277;25491;-55
2023/04/21 03:30:36;;;;;;;1.90;1.60;;;;;;;13.98;69.32;100555.77;106593;1272;25338;-55
2023/04/21 03:33:05;;;;;;;1.80;1.60;;;;;;;13.98;69.54;100558.55;106443;1276;25324;-56
2023/04/21 03:35:34;;;;;;;3.00;2.00;;;;;;;13.98;69.59;100563.61;106731;1273;24236;-55
2023/04/21 03:38:02;;;;;;;2.30;1.60;;;;;;;13.99;69.67;100564.10;106519;1274;25380;-55
2023/04/21 03:40:32;;;;;;;1.50;1.40;;;;;;;13.99;69.71;100563.39;106655;1276;25338;-55
2023/04/21 03:43:01;;;;;;;2.20;1.70;;;;;;;14.00;69.72;100567.39;105144;1273;1003685;-55
2023/04/21 03:45:30;;;;;;;1.80;1.70;;;;;;;14.00;69.76;100567.53;106942;1268;26506;-56
2023/04/21 03:47:59;;;;;;;3.00;1.80;;;;;;;14.01;69.74;100569.21;106812;1269;25366;-56
2023/04/21 03:50:28;;;;;;;1.40;1.30;;;;;;;14.02;69.76;100570.41;106829;1273;25347;-55
2023/04/21 03:52:57;;;;;;;1.10;0.70;;;;;;;14.04;69.63;100569.98;106833;1269;22676;-55
2023/04/21 03:55:25;;;;;;;0.80;0.80;;;;;;;14.05;69.53;100569.80;106876;1269;25335;-56
2023/04/21 03:57:53;;;;;;;1.90;1.50;;;;;;;14.05;69.38;100572.92;106844;1269;26674;-56
2023/04/21 04:00:22;;;;;;;1.70;1.40;;;;;;;14.06;69.49;100572.86;106792;1276;25352;-55
2023/04/21 04:02:50;;;;;;;1.80;1.70;;;;;;;14.08;69.69;100571.92;106849;1270;24289;-55
2023/04/21 04:05:19;;;;;;;1.50;1.30;;;;;;;14.09;69.75;100571.71;106823;1268;22537;-55
2023/04/21 04:07:47;;;;;;;2.40;1.70;;;;;;;14.10;69.63;100572.88;106897;1268;25881;-55
2023/04/21 04:10:16;;;;;;;3.10;1.10;;;;;;;14.09;69.77;100575.02;106943;1269;25352;-55
2023/04/21 04:12:45;;;;;;;1.50;1.40;;;;;;;14.09;69.90;100575.19;106847;1273;25334;-55
2023/04/21 04:15:13;;;;;;;1.80;1.40;;;;;;;14.10;69.95;100576.89;106829;1270;22538;-55
2023/04/21 04:17:42;;;;;;;1.40;1.20;;;;;;;14.11;69.94;100580.35;106853;1268;24261;-56
2023/04/21 04:20:11;;;;;;;3.00;1.50;;;;;;;14.10;69.98;100577.27;106808;1276;25790;-55
2023/04/21 04:22:40;;;;;;;1.30;1.20;;;;;;;14.09;70.04;100576.59;106833;1271;25533;-56
2023/04/21 04:25:08;;;;;;;0.90;0.80;;;;;;;14.09;70.11;100577.64;106986;1270;25423;-56
2023/04/21 04:27:37;;;;;;;2.40;1.60;;;;;;;14.10;70.15;100576.38;106798;1269;24293;-56
2023/04/21 04:30:06;;;;;;;1.90;1.10;;;;;;;14.12;70.14;100577.50;106802;1268;22531;-55
2023/04/21 04:32:38;;;;;;;2.30;1.30;;;;;;;14.17;70.13;100579.06;106820;1268;23328;-56
2023/04/21 04:35:07;;;;;;;1.40;1.30;;;;;;;14.21;69.93;100580.30;106865;1269;22516;-55
2023/04/21 04:37:36;;;;;;;2.90;1.60;;;;;;;14.25;69.72;100579.46;106856;1269;22601;-56
2023/04/21 04:40:25;;;;;;;3.00;2.10;;;;;;;14.27;69.63;100575.88;106807;1270;22526;-55
2023/04/21 04:42:54;;;;;;;2.70;2.20;;;;;;;14.30;69.33;100577.17;106627;1271;22659;-55
2023/04/21 04:45:25;;;;;;;3.20;2.00;;;;;;;14.33;69.30;100583.01;106626;1270;22643;-55
2023/04/21 04:47:53;;;;;;;2.30;2.10;;;;;;;14.34;69.36;100580.15;106767;1272;22761;-55
2023/04/21 04:50:21;;;;;;;3.40;2.40;;;;;;;14.35;69.28;100581.34;106727;1273;22532;-55
2023/04/21 04:52:50;;;;;;;3.90;2.70;;;;;;;14.37;69.25;100580.21;106868;1271;25359;-55
2023/04/21 04:55:18;;;;;;;3.60;2.80;;;;;;;14.38;69.17;100581.23;106687;1270;25439;-55
2023/04/21 04:57:47;;;;;;;4.30;3.00;;;;;;;14.40;69.10;100581.86;106845;1270;25484;-55
2023/04/21 05:00:16;;;;;;;6.60;2.80;;;;;;;14.40;69.17;100585.14;106787;1270;25331;-55
2023/04/21 05:02:44;;;;;;;8.80;3.60;;;;;;;14.42;69.21;100585.95;106682;1270;22548;-55
2023/04/21 05:05:13;;;;;;;5.50;3.60;;;;;;;14.44;69.04;100584.80;106821;1269;25567;-55
2023/04/21 05:07:42;;;;;;;5.60;3.80;;;;;;;14.47;68.87;100584.86;106895;1270;22589;-55
2023/04/21 05:10:10;;;;;;;4.10;3.20;;;;;;;14.48;68.41;100583.27;106663;1270;269350;-55
2023/04/21 05:12:40;;;;;;;3.70;3.30;;;;;;;14.45;68.15;100583.02;106808;1270;25334;-55
2023/04/21 05:15:08;;;;;;;3.60;2.70;;;;;;;14.44;68.04;100582.90;106825;1269;25350;-55
2023/04/21 05:17:37;;;;;;;4.50;3.20;;;;;;;14.44;67.82;100587.61;106718;1270;25363;-55
2023/04/21 05:20:07;;;;;;;4.40;3.00;;;;;;;14.44;67.71;100591.98;106752;1270;22530;-55
2023/04/21 05:22:37;;;;;;;4.30;3.10;;;;;;;14.45;67.72;100595.09;106882;1268;22823;-54
2023/04/21 05:25:06;;;;;;;4.40;3.20;;;;;;;14.45;67.65;100597.01;106864;1268;24184;-54
2023/04/21 05:27:35;;;;;;;4.30;3.20;;;;;;;14.48;67.38;100593.58;106789;1275;25348;-55
2023/04/21 05:30:04;;;;;;;3.40;2.70;;;;;;;14.46;67.21;100592.75;106933;1268;22526;-55
2023/04/21 05:32:33;;;;;;;5.20;2.80;;;;;;;14.44;67.25;100594.77;106937;1268;24869;-55
2023/04/21 05:35:02;;;;;;;2.80;2.50;;;;;;;14.40;67.39;100596.48;106843;1268;25352;-55
2023/04/21 05:37:31;;;;;;;4.20;2.50;;;;;;;14.41;67.51;100594.55;106761;1273;22527;-54
2023/04/21 05:39:59;;;;;;;6.30;3.00;;;;;;;14.44;67.54;100599.67;106828;1268;26510;-55
2023/04/21 05:42:28;;;;;;;3.10;2.50;;;;;;;14.45;67.50;100595.75;106992;1268;25238;-54
2023/04/21 05:44:56;;;;;;;3.50;2.50;;;;;;;14.47;67.06;100600.42;106756;1268;24254;-54
2023/04/21 05:47:25;;;;;;;5.20;2.80;;;;;;;14.47;66.87;100600.57;106967;1269;22548;-54
2023/04/21 05:49:54;;;;;;;4.50;2.60;;;;;;;14.47;66.79;100601.45;106862;1273;25565;-54
2023/04/21 05:52:23;;;;;;;3.40;2.60;;;;;;;14.48;66.80;100600.69;106859;1254;24300;-55
2023/04/21 05:54:51;;;;;;;4.90;2.60;;;;;;;14.51;66.72;100606.35;106729;1270;24085;-54
2023/04/21 05:57:20;;;;;;;3.20;2.60;;;;;;;14.52;66.66;100606.32;106733;1257;25466;-54
2023/04/21 05:59:48;;;;;;;4.00;2.50;;;;;;;14.51;66.53;100606.85;106957;1268;22583;-54
2023/04/21 06:02:17;;;;;;;4.00;2.30;;;;;;;14.48;66.20;100607.34;106778;1273;25429;-54
2023/04/21 06:04:46;;;;;;;3.50;2.80;;;;;;;14.44;66.24;100608.37;106876;1268;22530;-55
2023/04/21 06:07:16;;;;;;;3.20;2.30;;;;;;;14.43;66.30;100607.55;107023;1253;25303;-55
2023/04/21 06:09:50;;;;;;;3.70;2.20;;;;;;;14.41;66.14;100613.38;106907;1268;25595;-55
2023/04/21 06:12:18;;;;;;;3.10;2.30;;;;;;;14.37;66.06;100612.48;106837;1270;24475;-55
2023/04/21 06:14:46;;;;;;;4.30;2.10;;;;;;;14.34;66.11;100611.91;106852;1268;25380;-55
2023/04/21 06:17:16;;;;;;;3.40;2.50;;;;;;;14.33;66.13;100612.64;106793;1273;25335;-55
2023/04/21 06:19:45;;;;;;;3.90;2.20;;;;;;;14.30;65.94;100612.96;106852;1268;24219;-55
2023/04/21 06:22:14;;;;;;;3.20;2.10;;;;;;;14.27;66.05;100612.70;106859;1268;26503;-54
2023/04/21 06:24:42;;;;;;;3.30;1.90;;;;;;;14.25;65.90;100618.02;106792;1268;25354;-54
2023/04/21 06:27:13;;;;;;;3.60;2.10;;;;;;;14.23;66.10;100619.65;106870;1270;22639;-55
2023/04/21 06:29:42;;;;;;;3.20;2.30;;;;;;;14.27;66.17;100617.95;106814;1268;25325;-54
2023/04/21 06:32:10;;;;;;;3.00;2.30;;;;;;;14.34;66.13;100625.38;106853;1269;25381;-55
2023/04/21 06:34:39;;;;;;;2.60;2.30;;;;;;;14.38;65.71;100626.42;106858;1268;25433;-55
2023/04/21 06:37:08;;;;;;;4.70;3.40;;;;;;;14.40;65.71;100626.88;106935;1269;24250;-54
2023/04/21 06:39:36;;;;;;;4.90;3.80;;;;;;;14.40;65.77;100628.63;106771;1260;23279;-55
2023/04/21 06:42:05;;;;;;;4.80;3.30;;;;;;;14.37;65.71;100631.16;106799;1273;25352;-55
2023/04/21 06:44:42;;;;;;;3.50;2.80;;;;;;;14.33;65.48;100635.15;106769;1276;22641;-55
2023/04/21 06:47:10;;;;;;;3.90;3.00;;;;;;;14.27;65.24;100635.20;106876;1269;25606;-55
2023/04/21 06:49:39;;;;;;;5.50;3.50;;;;;;;14.22;65.36;100634.70;106915;1268;26640;-55
2023/04/21 06:52:07;;;;;;;5.80;4.20;;;;;;;14.19;65.52;100635.67;106868;1268;25343;-54
2023/04/21 06:54:37;;;;;;;6.50;4.60;;;;;;;14.16;65.80;100636.14;106847;1268;24324;-55
2023/04/21 06:57:06;;;;;;;6.90;4.30;;;;;;;14.13;66.19;100638.90;106704;1271;25399;-54
2023/04/21 06:59:35;;;;;;;5.20;4.00;;;;;;;14.12;66.47;100643.27;106858;1268;25361;-55
2023/04/21 07:02:03;;;;;;;5.10;3.80;;;;;;;14.11;66.36;100642.79;106799;1273;25360;-54
2023/04/21 07:04:32;;;;;;;5.20;3.90;;;;;;;14.11;66.43;100640.02;106857;1268;25434;-55
2023/04/21 07:07:00;;;;;;;4.20;2.70;;;;;;;14.13;66.23;100642.39;106853;1268;25561;-55
2023/04/21 07:09:32;;;;;;;6.00;3.30;;;;;;;14.12;66.09;100646.41;106820;1268;25409;-55
2023/04/21 07:12:01;;;;;;;3.40;2.60;;;;;;;14.11;66.01;100646.98;106864;1268;22540;-55
2023/04/21 07:14:30;;;;;;;8.50;4.50;;;;;;;14.11;66.05;100649.27;106899;1255;25533;-55
2023/04/21 07:16:58;;;;;;;4.80;2.80;;;;;;;14.14;65.99;100648.45;106835;1268;25385;-55
2023/04/21 07:19:27;;;;;;;2.90;2.10;;;;;;;14.17;65.70;100648.31;106817;1268;22810;-55
2023/04/21 07:21:55;;;;;;;6.00;2.00;;;;;;;14.19;65.28;100648.61;106816;1268;22524;-55
2023/04/21 07:24:24;;;;;;;3.20;2.10;;;;;;;14.16;65.32;100648.01;106910;1268;24209;-55
2023/04/21 07:26:52;;;;;;;2.70;1.80;;;;;;;14.16;65.30;100648.02;106781;1268;25422;-55
2023/04/21 07:29:21;;;;;;;4.20;1.80;;;;;;;14.16;65.21;100648.89;106820;1269;25313;-55
2023/04/21 07:31:50;;;;;;;2.20;1.50;;;;;;;14.13;65.22;100651.80;106786;1270;22541;-55
2023/04/21 07:34:19;;;;;;;2.40;1.50;;;;;;;14.11;65.30;100655.19;106784;1255;22536;-55
2023/04/21 07:36:47;;;;;;;2.40;1.30;;;;;;;14.11;65.39;100658.52;106911;1268;26617;-55
2023/04/21 07:39:15;;;;;;;1.90;1.50;;;;;;;14.12;65.36;100656.73;106871;1268;25373;-55
2023/04/21 07:41:45;;;;;;;3.70;1.90;;;;;;;14.11;65.11;100653.77;106857;1268;22520;-54
2023/04/21 07:44:13;;;;;;;2.70;1.60;;;;;;;14.12;64.96;100654.64;106774;1272;22543;-54
2023/04/21 07:46:42;;;;;;;2.20;1.40;;;;;;;14.12;64.85;100658.64;106870;1268;24296;-55
2023/04/21 07:49:10;;;;;;;1.80;1.30;;;;;;;14.14;64.84;100659.43;106841;1268;25355;-55
2023/04/21 07:51:39;;;;;;;1.60;1.50;;;;;;;14.15;64.87;100662.71;106864;1268;25373;-55
2023/04/21 07:54:07;;;;;;;2.00;1.30;;;;;;;14.15;64.76;100664.62;106936;1268;25364;-55
2023/04/21 07:56:36;;;;;;;3.10;1.40;;;;;;;14.15;64.87;100664.46;106965;1269;25297;-55
2023/04/21 07:59:04;;;;;;;2.00;1.60;;;;;;;14.15;64.84;100665.48;106766;1268;22645;-55
2023/04/21 08:01:34;;;;;;;2.90;1.90;;;;;;;14.16;64.77;100672.59;106810;1269;25349;-55
2023/04/21 08:04:03;;;;;;;1.80;1.70;;;;;;;14.15;64.63;100678.76;106838;1268;22516;-55
2023/04/21 08:06:32;;;;;;;2.60;1.30;;;;;;;14.11;64.40;100676.10;106811;1268;25461;-55
2023/04/21 08:09:00;;;;;;;1.90;1.40;;;;;;;14.08;64.43;100675.54;106593;1271;22520;-55
2023/04/21 08:11:29;;;;;;;1.90;1.50;;;;;;;14.06;64.38;100681.18;106695;1269;25407;-54
2023/04/21 08:13:58;;;;;;;1.90;1.50;;;;;;;14.06;64.39;100675.95;106599;1276;25360;-53
2023/04/21 08:16:26;;;;;;;1.20;1.10;;;;;;;14.08;64.42;100679.73;106637;1273;25356;-53
2023/04/21 08:18:55;;;;;;;2.20;1.60;;;;;;;14.09;64.55;100679.84;106699;1268;25434;-54
2023/04/21 08:21:23;;;;;;;2.00;1.60;;;;;;;14.12;64.71;100677.14;106749;1260;22644;-55
2023/04/21 08:23:54;;;;;;;4.70;1.80;;;;;;;14.12;64.57;100675.36;106869;1268;24246;-54
2023/04/21 08:26:24;;;;;;;1.90;1.50;;;;;;;14.11;64.56;100681.34;106836;1270;25380;-54
2023/04/21 08:28:52;;;;;;;1.50;1.40;;;;;;;14.10;64.49;100677.75;106868;1268;22545;-54
2023/04/21 08:31:21;;;;;;;2.70;1.40;;;;;;;14.07;64.49;100677.30;105376;1268;1003022;-55
2023/04/21 08:33:49;;;;;;;2.10;1.70;;;;;;;14.07;64.44;100678.02;106872;1268;22524;-55
2023/04/21 08:36:30;;;;;;;2.00;1.70;;;;;;;14.07;64.41;100676.11;106920;1268;25310;-55
2023/04/21 08:38:59;;;;;;;2.30;1.80;;;;;;;14.08;64.26;100679.19;106887;1268;25425;-55
2023/04/21 08:41:27;;;;;;;2.00;1.80;;;;;;;14.08;64.11;100681.80;106905;1269;22638;-54
2023/04/21 08:43:56;;;;;;;2.40;1.40;;;;;;;14.09;64.11;100686.31;106789;1273;22741;-54
2023/04/21 08:46:24;;;;;;;2.10;1.80;;;;;;;14.10;64.07;100683.65;106778;1268;25536;-54
2023/04/21 08:48:53;;;;;;;2.20;1.40;;;;;;;14.09;63.91;100683.52;106922;1269;25424;-55
2023/04/21 08:51:22;;;;;;;2.50;1.40;;;;;;;14.10;63.84;100685.91;106749;1272;24177;-54
2023/04/21 08:53:56;;;;;;;2.60;1.50;;;;;;;14.11;63.55;100683.45;106932;1268;24088;-54
2023/04/21 08:56:25;;;;;;;1.90;1.60;;;;;;;14.11;63.61;100679.79;106925;1270;22529;-54
2023/04/21 08:58:53;;;;;;;1.80;1.40;;;;;;;14.11;63.63;100681.35;106752;1270;24322;-54
2023/04/21 09:01:22;;;;;;;1.70;1.30;;;;;;;14.11;63.78;100681.52;106777;1268;22527;-54
2023/04/21 09:03:50;;;;;;;2.20;1.40;;;;;;;14.14;63.82;100685.61;106869;1268;26557;-54
2023/04/21 09:06:19;;;;;;;1.50;1.30;;;;;;;14.14;63.65;100685.76;106954;1268;25360;-55
2023/04/21 09:08:54;;;;;;;2.00;1.40;;;;;;;14.13;63.65;100686.85;106868;1268;25913;-55
2023/04/21 09:11:24;;;;;;;1.80;1.30;;;;;;;14.14;63.59;100689.42;106912;1268;24250;-55
2023/04/21 09:13:55;;;;;;;2.60;1.30;;;;;;;14.15;63.43;100690.78;106874;1268;22656;-55
2023/04/21 09:16:24;;;;;;;1.50;1.40;;;;;;;14.14;63.26;100688.38;106798;1268;22650;-53
2023/04/21 09:18:52;;;;;;;3.50;1.10;;;;;;;14.15;63.13;100687.64;106903;1268;22644;-54
2023/04/21 09:21:22;;;;;;;3.70;1.10;;;;;;;14.17;63.09;100687.39;106753;1276;22779;-54
2023/04/21 09:23:51;;;;;;;1.70;1.30;;;;;;;14.20;62.97;100689.55;106734;1274;27259;-54
2023/04/21 09:26:21;;;;;;;3.20;2.30;;;;;;;14.21;62.84;100685.33;106792;1268;25242;-54
2023/04/21 09:28:51;;;;;;;4.10;2.50;;;;;;;14.24;62.85;100685.89;106790;1274;24279;-54
2023/04/21 09:31:32;;;;;;;3.20;2.60;;;;;;;14.28;62.68;100687.87;106895;1268;24026;-54
2023/04/21 09:34:00;;;;;;;2.60;2.20;;;;;;;14.29;62.72;100688.73;106789;1269;25374;-55
2023/04/21 09:36:30;;;;;;;2.70;2.20;;;;;;;14.28;62.63;100686.13;106854;1268;25371;-54
2023/04/21 09:39:00;;;;;;;3.50;2.20;;;;;;;14.25;62.83;100686.02;106914;1268;24386;-55
2023/04/21 09:41:32;;;;;;;1.90;1.70;;;;;;;14.23;62.79;100687.89;106943;1268;25367;-54
2023/04/21 09:44:02;;;;;;;3.50;2.00;;;;;;;14.18;62.39;100690.85;106829;1271;23894;-54
2023/04/21 09:46:33;;;;;;;2.60;1.80;;;;;;;14.10;62.17;100689.77;106867;1268;25373;-54
2023/04/21 09:49:02;;;;;;;3.90;1.30;;;;;;;14.05;62.57;100689.62;106814;1261;22535;-54
2023/04/21 09:51:31;;;;;;;2.20;1.40;;;;;;;14.04;62.45;100687.54;106831;1269;22518;-55
2023/04/21 09:54:20;;;;;;;3.00;1.50;;;;;;;14.03;62.41;100686.90;106803;1269;25370;-54
2023/04/21 09:56:52;;;;;;;1.40;1.30;;;;;;;14.03;62.50;100686.89;106848;1268;25530;-55
2023/04/21 09:59:26;;;;;;;3.40;2.20;;;;;;;14.04;62.84;100689.48;106861;1275;25297;-55
2023/04/21 10:01:55;;;;;;;4.10;2.30;;;;;;;14.08;62.60;100688.46;106760;1273;22533;-54
2023/04/21 10:04:24;;;;;;;4.10;2.90;;;;;;;14.10;62.44;100689.40;106825;1268;22520;-54
2023/04/21 10:06:53;;;;;;;6.60;2.70;;;;;;;14.16;62.54;100690.60;106821;1268;24331;-55
2023/04/21 10:09:23;;;;;;;3.80;2.40;;;;;;;14.19;62.79;100689.77;106768;1271;25364;-54
2023/04/21 10:11:51;;;;;;;3.20;2.30;;;;;;;14.19;62.56;100689.96;106837;1268;25335;-54
2023/04/21 10:14:21;;;;;;;3.00;1.90;;;;;;;14.14;62.32;100687.69;106839;1268;24250;-54
2023/04/21 10:16:58;;;;;;;3.00;1.80;;;;;;;14.09;62.44;100687.35;106100;1268;1003763;-54
2023/04/21 10:19:26;;;;;;;4.90;2.50;;;;;;;14.10;62.83;100688.39;106806;1268;24248;-54
2023/04/21 10:21:56;;;;;;;3.20;1.90;;;;;;;14.11;62.63;100695.14;106904;1268;26586;-54
2023/04/21 10:24:29;;;;;;;2.80;2.10;;;;;;;14.10;62.59;100695.52;106892;1271;22530;-54
2023/04/21 10:26:58;;;;;;;4.50;2.30;;;;;;;14.09;62.35;100695.75;106817;1273;22630;-53
2023/04/21 10:29:28;;;;;;;6.10;2.20;;;;;;;14.08;62.43;100699.62;106707;1274;25233;-54
2023/04/21 10:32:11;;;;;;;4.30;2.10;;;;;;;14.08;62.29;100694.89;106071;1268;1002956;-54
2023/04/21 10:34:40;;;;;;;4.30;2.30;;;;;;;14.10;62.40;100708.77;106974;1268;22520;-54
2023/04/21 10:37:11;;;;;;;4.20;2.00;;;;;;;14.12;62.19;100704.52;106861;1268;22519;-54
2023/04/21 10:39:53;;;;;;;7.50;2.30;;;;;;;14.12;61.88;100707.12;106847;1271;25400;-53
2023/04/21 10:42:26;;;;;;;3.30;2.10;;;;;;;14.12;61.72;100712.88;106874;1268;24258;-54
2023/04/21 10:44:55;;;;;;;2.40;2.20;;;;;;;14.10;61.30;100714.72;106826;1268;25434;-54
2023/04/21 10:47:47;;;;;;;5.40;2.20;;;;;;;14.06;61.51;100717.66;106816;1268;25491;-54
2023/04/21 10:50:20;;;;;;;4.50;2.10;;;;;;;14.04;61.26;100715.62;106885;1268;23307;-54
2023/04/21 10:52:59;;;;;;;4.80;2.20;;;;;;;14.02;61.55;100713.44;106766;1270;22532;-54
2023/04/21 10:55:28;;;;;;;3.80;2.00;;;;;;;14.05;61.78;100716.30;106746;1271;22519;-54
2023/04/21 10:58:00;;;;;;;3.70;2.00;;;;;;;14.08;62.00;100716.02;106782;1274;23863;-54
2023/04/21 11:00:29;;;;;;;3.00;1.70;;;;;;;14.13;61.84;100717.55;106712;1269;25435;-54
2023/04/21 11:03:02;;;;;;;4.20;1.90;;;;;;;14.17;61.44;100718.96;106955;1268;22523;-54
2023/04/21 11:05:38;;;;;;;3.90;2.60;;;;;;;14.20;61.18;100721.46;106180;1268;1003321;-54
2023/04/21 11:08:11;;;;;;;3.10;2.20;;;;;;;14.24;61.26;100723.96;106762;1272;22630;-53
2023/04/21 11:10:55;;;;;;;3.50;1.60;;;;;;;14.27;61.11;100726.98;106712;1271;24370;-54
2023/04/21 11:13:25;;;;;;;4.90;2.20;;;;;;;14.22;60.87;100726.66;106815;1268;25366;-54
2023/04/21 11:15:58;;;;;;;5.70;2.20;;;;;;;14.18;61.15;100730.30;106862;1268;22673;-54
2023/04/21 11:18:35;;;;;;;3.30;1.80;;;;;;;14.14;61.11;100730.25;106892;1271;24252;-54
2023/04/21 11:21:08;;;;;;;5.30;1.90;;;;;;;14.10;61.14;100731.82;106827;1275;22530;-53
2023/04/21 11:23:41;;;;;;;4.00;1.80;;;;;;;14.06;61.14;100735.08;106796;1254;24393;-53
2023/04/21 11:26:10;;;;;;;3.70;2.20;;;;;;;14.01;61.28;100739.98;106796;1269;24248;-53
2023/04/21 11:28:41;;;;;;;3.90;1.90;;;;;;;13.98;61.30;100741.30;107029;1268;25366;-54